createdAt,value
2022-11-14T00:00:30.486Z,2.80
2022-11-14T00:03:00.818Z,2.50
2022-11-14T00:05:27.772Z,2.40
2022-11-14T00:07:54.586Z,2.35
2022-11-14T00:10:21.378Z,2.50
2022-11-14T00:12:48.201Z,2.30
2022-11-14T00:15:14.994Z,2.13
2022-11-14T00:17:41.864Z,2.58
2022-11-14T00:20:09.485Z,2.38
2022-11-14T00:22:36.350Z,2.22
2022-11-14T00:25:03.162Z,2.40
2022-11-14T00:27:30.055Z,2.17
2022-11-14T00:29:56.837Z,2.28
2022-11-14T00:32:23.608Z,2.47
2022-11-14T00:34:50.500Z,2.08
2022-11-14T00:37:17.310Z,2.40
2022-11-14T00:39:44.119Z,2.33
2022-11-14T00:42:10.947Z,2.20
2022-11-14T00:44:37.831Z,2.40
2022-11-14T00:47:04.666Z,2.33
2022-11-14T00:49:31.565Z,2.13
2022-11-14T00:51:58.490Z,1.98
2022-11-14T00:54:26.727Z,2.20
2022-11-14T00:56:53.588Z,2.08
2022-11-14T00:59:20.421Z,2.00
2022-11-14T01:01:47.229Z,1.80
2022-11-14T01:04:14.028Z,1.77
2022-11-14T01:06:40.820Z,1.55
2022-11-14T01:09:07.927Z,2.15
2022-11-14T01:11:34.787Z,2.20
2022-11-14T01:14:01.523Z,2.33
2022-11-14T01:16:28.310Z,3.22
2022-11-14T01:18:55.142Z,2.53
2022-11-14T01:21:21.928Z,2.50
2022-11-14T01:23:48.708Z,2.45
2022-11-14T01:26:15.477Z,2.88
2022-11-14T01:28:42.329Z,2.70
2022-11-14T01:31:20.428Z,3.45
2022-11-14T01:33:51.138Z,2.75
2022-11-14T01:36:18.160Z,2.75
2022-11-14T01:38:45.329Z,3.10
2022-11-14T01:41:15.900Z,3.45
2022-11-14T01:43:42.862Z,3.40
2022-11-14T01:46:19.287Z,3.10
2022-11-14T01:48:47.847Z,3.42
2022-11-14T01:51:31.531Z,2.72
2022-11-14T01:54:00.162Z,3.22
2022-11-14T01:56:36.354Z,2.80
2022-11-14T01:59:11.820Z,2.60
2022-11-14T02:01:43.341Z,2.50
2022-11-14T02:04:14.196Z,2.60
2022-11-14T02:06:41.992Z,2.40
2022-11-14T02:09:08.834Z,2.35
2022-11-14T02:11:38.303Z,2.70
2022-11-14T02:14:05.195Z,2.30
2022-11-14T02:16:32.054Z,3.13
2022-11-14T02:18:58.841Z,2.95
2022-11-14T02:21:25.643Z,2.42
2022-11-14T02:23:52.514Z,2.88
2022-11-14T02:26:19.931Z,2.90
2022-11-14T02:28:46.958Z,2.88
2022-11-14T02:31:14.106Z,2.13
2022-11-14T02:33:41.137Z,2.03
2022-11-14T02:36:08.071Z,2.53
2022-11-14T02:38:35.144Z,2.65
2022-11-14T02:41:01.944Z,2.50
2022-11-14T02:43:28.993Z,2.22
2022-11-14T02:45:55.788Z,2.05
2022-11-14T02:48:22.579Z,2.38
2022-11-14T02:50:49.845Z,2.80
2022-11-14T02:53:16.638Z,1.88
2022-11-14T02:55:43.449Z,2.03
2022-11-14T02:58:10.290Z,1.80
2022-11-14T03:00:53.284Z,2.30
2022-11-14T03:03:23.865Z,1.83
2022-11-14T03:05:53.438Z,2.15
2022-11-14T03:08:20.183Z,2.40
2022-11-14T03:10:46.965Z,2.33
2022-11-14T03:13:13.771Z,1.88
2022-11-14T03:15:40.552Z,1.95
2022-11-14T03:18:07.534Z,2.35
2022-11-14T03:20:34.798Z,2.78
2022-11-14T03:23:01.701Z,2.30
2022-11-14T03:25:28.506Z,2.75
2022-11-14T03:27:55.336Z,2.75
2022-11-14T03:30:22.119Z,2.03
2022-11-14T03:32:48.876Z,2.38
2022-11-14T03:35:15.713Z,1.98
2022-11-14T03:37:42.499Z,2.38
2022-11-14T03:40:09.650Z,2.28
2022-11-14T03:42:36.539Z,2.75
2022-11-14T03:45:03.570Z,2.90
2022-11-14T03:47:30.510Z,2.33
2022-11-14T03:49:57.663Z,2.63
2022-11-14T03:52:26.150Z,2.20
2022-11-14T03:54:52.953Z,2.13
2022-11-14T03:57:19.731Z,2.35
2022-11-14T03:59:46.495Z,2.70
2022-11-14T04:02:14.711Z,2.42
2022-11-14T04:04:41.502Z,2.63
2022-11-14T04:07:08.345Z,2.40
2022-11-14T04:09:35.339Z,2.15
2022-11-14T04:12:02.380Z,2.20
2022-11-14T04:14:29.145Z,2.60
2022-11-14T04:16:55.931Z,2.33
2022-11-14T04:19:22.721Z,1.92
2022-11-14T04:21:49.471Z,2.28
2022-11-14T04:24:16.391Z,1.92
2022-11-14T04:26:43.183Z,2.33
2022-11-14T04:29:09.936Z,2.38
2022-11-14T04:31:36.723Z,2.28
2022-11-14T04:34:03.596Z,2.10
2022-11-14T04:36:30.535Z,2.28
2022-11-14T04:38:57.445Z,1.85
2022-11-14T04:41:24.211Z,1.50
2022-11-14T04:43:51.245Z,1.70
2022-11-14T04:46:18.138Z,1.88
2022-11-14T04:48:44.931Z,1.35
2022-11-14T04:51:11.893Z,1.08
2022-11-14T04:53:38.650Z,1.50
2022-11-14T04:56:05.703Z,1.55
2022-11-14T04:58:32.565Z,1.13
2022-11-14T05:00:59.652Z,1.38
2022-11-14T05:03:26.494Z,1.00
2022-11-14T05:05:53.307Z,1.23
2022-11-14T05:08:20.107Z,0.98
2022-11-14T05:10:46.878Z,1.30
2022-11-14T05:13:13.667Z,1.30
2022-11-14T05:15:40.463Z,1.17
2022-11-14T05:18:07.207Z,1.05
2022-11-14T05:20:34.458Z,1.05
2022-11-14T05:23:01.344Z,1.10
2022-11-14T05:25:28.111Z,1.50
2022-11-14T05:27:54.894Z,1.50
2022-11-14T05:30:21.787Z,1.38
2022-11-14T05:32:48.529Z,1.38
2022-11-14T05:35:15.297Z,1.50
2022-11-14T05:37:42.208Z,1.13
2022-11-14T05:40:09.545Z,1.42
2022-11-14T05:42:36.318Z,0.90
2022-11-14T05:45:03.215Z,1.30
2022-11-14T05:47:30.766Z,1.17
2022-11-14T05:49:57.898Z,1.48
2022-11-14T05:52:24.738Z,1.10
2022-11-14T05:54:53.446Z,1.25
2022-11-14T05:57:23.420Z,1.02
2022-11-14T05:59:50.260Z,1.10
2022-11-14T06:02:17.030Z,1.20
2022-11-14T06:04:43.988Z,1.05
2022-11-14T06:07:11.916Z,1.10
2022-11-14T06:09:40.819Z,1.00
2022-11-14T06:12:07.943Z,1.20
2022-11-14T06:14:34.985Z,1.15
2022-11-14T06:17:01.730Z,1.00
2022-11-14T06:19:28.599Z,1.10
2022-11-14T06:21:55.398Z,1.33
2022-11-14T06:24:22.199Z,1.33
2022-11-14T06:26:48.980Z,1.10
2022-11-14T06:29:15.819Z,1.20
2022-11-14T06:31:42.692Z,1.00
2022-11-14T06:34:11.376Z,0.95
2022-11-14T06:36:38.217Z,1.00
2022-11-14T06:39:05.090Z,1.50
2022-11-14T06:41:31.923Z,1.35
2022-11-14T06:43:58.860Z,1.17
2022-11-14T06:46:25.720Z,1.50
2022-11-14T06:48:55.344Z,1.52
2022-11-14T06:51:22.249Z,1.58
2022-11-14T06:53:49.114Z,1.50
2022-11-14T06:56:16.889Z,1.77
2022-11-14T06:58:45.894Z,2.13
2022-11-14T07:01:15.563Z,1.75
2022-11-14T07:03:42.939Z,2.00
2022-11-14T07:06:11.438Z,1.95
2022-11-14T07:08:38.602Z,2.00
2022-11-14T07:11:10.081Z,1.98
2022-11-14T07:13:36.938Z,1.90
2022-11-14T07:16:03.952Z,2.00
2022-11-14T07:18:31.965Z,2.03
2022-11-14T07:21:04.416Z,1.77
2022-11-14T07:23:31.930Z,1.70
2022-11-14T07:26:02.887Z,1.90
2022-11-14T07:28:30.175Z,2.15
2022-11-14T07:30:57.292Z,1.85
2022-11-14T07:33:24.494Z,2.05
2022-11-14T07:35:51.691Z,1.73
2022-11-14T07:38:18.462Z,1.55
2022-11-14T07:40:59.599Z,1.80
2022-11-14T07:43:27.476Z,1.63
2022-11-14T07:45:54.491Z,1.90
2022-11-14T07:48:22.619Z,1.63
2022-11-14T07:50:49.394Z,1.45
2022-11-14T07:53:17.766Z,2.20
2022-11-14T07:55:44.612Z,1.65
2022-11-14T07:58:11.424Z,1.52
2022-11-14T08:00:38.272Z,1.50
2022-11-14T08:03:07.460Z,1.50
2022-11-14T08:05:34.814Z,1.90
2022-11-14T08:08:01.707Z,1.30
2022-11-14T08:10:33.264Z,1.92
2022-11-14T08:13:25.322Z,1.30
2022-11-14T08:15:48.497Z,1.35
2022-11-14T08:18:15.324Z,1.40
2022-11-14T08:20:42.225Z,0.95
2022-11-14T08:23:09.883Z,1.10
2022-11-14T08:25:36.745Z,1.08
2022-11-14T08:28:03.851Z,1.00
2022-11-14T08:30:30.998Z,1.02
2022-11-14T08:32:57.895Z,1.38
2022-11-14T08:35:24.748Z,0.90
2022-11-14T08:37:51.541Z,1.10
2022-11-14T08:40:18.544Z,1.35
2022-11-14T08:42:45.466Z,1.20
2022-11-14T08:45:12.435Z,1.20
2022-11-14T08:47:39.785Z,0.90
2022-11-14T08:50:07.030Z,1.27
2022-11-14T08:52:34.214Z,1.20
2022-11-14T08:55:01.030Z,1.23
2022-11-14T08:57:28.088Z,1.27
2022-11-14T08:59:55.834Z,1.05
2022-11-14T09:02:22.719Z,1.15
2022-11-14T09:04:49.532Z,1.23
2022-11-14T09:07:16.582Z,1.23
2022-11-14T09:09:43.816Z,1.40
2022-11-14T09:12:10.717Z,1.17
2022-11-14T09:14:37.875Z,1.40
2022-11-14T09:17:06.049Z,1.33
2022-11-14T09:19:33.415Z,1.15
2022-11-14T09:22:00.266Z,1.60
2022-11-14T09:24:27.028Z,1.25
2022-11-14T09:26:57.092Z,1.70
2022-11-14T09:29:24.275Z,1.42
2022-11-14T09:31:51.975Z,1.65
2022-11-14T09:34:18.787Z,1.40
2022-11-14T09:36:46.733Z,1.77
2022-11-14T09:39:13.616Z,1.52
2022-11-14T09:42:18.886Z,1.80
2022-11-14T09:44:56.459Z,1.98
2022-11-14T09:47:25.396Z,2.00
2022-11-14T09:49:52.588Z,1.80
2022-11-14T09:52:29.724Z,1.52
2022-11-14T09:55:01.714Z,2.33
2022-11-14T09:57:28.616Z,2.08
2022-11-14T09:59:55.889Z,2.05
2022-11-14T10:02:48.395Z,2.03
2022-11-14T10:05:23.802Z,1.88
2022-11-14T10:08:20.746Z,2.05
2022-11-14T10:10:56.179Z,2.30
2022-11-14T10:13:29.471Z,2.13
2022-11-14T10:15:59.506Z,2.30
2022-11-14T10:18:38.391Z,1.50
2022-11-14T10:21:10.822Z,2.00
2022-11-14T10:23:44.460Z,1.55
2022-11-14T10:26:17.968Z,1.98
2022-11-14T10:28:59.812Z,1.80
2022-11-14T10:31:38.540Z,1.92
2022-11-14T10:34:11.876Z,2.40
2022-11-14T10:36:41.715Z,1.83
2022-11-14T10:39:21.401Z,2.15
2022-11-14T10:41:57.952Z,1.77
2022-11-14T10:44:30.808Z,2.17
2022-11-14T10:47:01.051Z,1.90
2022-11-14T10:49:31.503Z,1.55
2022-11-14T10:52:00.007Z,1.98
2022-11-14T10:54:48.294Z,1.58
2022-11-14T10:57:17.139Z,1.80
2022-11-14T10:59:44.082Z,1.73
2022-11-14T11:02:10.894Z,1.98
2022-11-14T11:04:41.726Z,2.35
2022-11-14T11:07:08.436Z,2.20
2022-11-14T11:09:58.222Z,2.28
2022-11-14T11:12:48.624Z,2.30
2022-11-14T11:15:22.498Z,2.13
2022-11-14T11:18:02.866Z,2.10
2022-11-14T11:20:39.299Z,1.73
2022-11-14T11:23:12.019Z,1.70
2022-11-14T11:25:39.705Z,2.22
2022-11-14T11:28:10.995Z,2.13
2022-11-14T11:30:37.933Z,2.20
2022-11-14T11:33:21.323Z,1.83
2022-11-14T11:38:16.484Z,1.80
2022-11-14T11:40:48.552Z,2.25
2022-11-14T11:43:50.303Z,2.25
2022-11-14T11:46:44.995Z,2.47
2022-11-14T11:49:16.159Z,3.08
2022-11-14T11:51:44.192Z,3.72
2022-11-14T11:54:18.341Z,3.53
2022-11-14T11:56:45.781Z,3.08
2022-11-14T11:59:29.441Z,3.03
2022-11-14T12:01:56.305Z,3.28
2022-11-14T12:04:23.459Z,2.83
2022-11-14T12:06:56.007Z,2.65
2022-11-14T12:09:48.859Z,1.73
2022-11-14T12:12:23.485Z,2.45
2022-11-14T12:15:17.651Z,2.05
2022-11-14T12:18:21.947Z,1.67
2022-11-14T12:20:53.763Z,1.73
2022-11-14T12:23:51.007Z,1.45
2022-11-14T12:26:30.435Z,1.75
2022-11-14T12:29:14.328Z,1.48
2022-11-14T12:31:41.283Z,1.55
2022-11-14T12:34:23.403Z,1.98
2022-11-14T12:36:50.419Z,1.85
2022-11-14T12:39:27.011Z,2.30
2022-11-14T12:42:07.378Z,1.80
2022-11-14T12:44:36.579Z,1.85
2022-11-14T12:47:06.471Z,1.92
2022-11-14T12:49:48.408Z,2.03
2022-11-14T12:52:40.252Z,1.77
2022-11-14T12:55:25.383Z,2.30
2022-11-14T12:58:04.011Z,2.08
2022-11-14T13:00:30.908Z,1.90
2022-11-14T13:03:11.881Z,1.88
2022-11-14T13:05:46.814Z,2.03
2022-11-14T13:08:35.229Z,2.00
2022-11-14T13:11:42.941Z,2.10
2022-11-14T13:14:28.081Z,1.90
2022-11-14T13:17:13.182Z,2.10
2022-11-14T13:20:05.043Z,2.08
2022-11-14T13:22:41.987Z,2.35
2022-11-14T13:25:11.730Z,2.65
2022-11-14T13:28:06.077Z,2.08
2022-11-14T13:31:03.265Z,2.20
2022-11-14T13:33:59.169Z,2.10
2022-11-14T13:36:30.579Z,2.15
2022-11-14T13:39:10.154Z,2.13
2022-11-14T13:41:53.363Z,2.28
2022-11-14T13:47:45.035Z,2.10
2022-11-14T13:50:14.375Z,1.65
2022-11-14T13:52:43.872Z,1.52
2022-11-14T13:55:26.358Z,2.13
2022-11-14T13:58:38.387Z,1.70
2022-11-14T14:01:11.698Z,1.88
2022-11-14T14:04:10.800Z,1.75
2022-11-14T14:06:48.624Z,2.13
2022-11-14T14:09:47.780Z,2.05
2022-11-14T14:12:43.394Z,2.08
2022-11-14T14:15:55.373Z,1.98
2022-11-14T14:18:31.759Z,1.65
2022-11-14T14:21:19.188Z,1.67
2022-11-14T14:23:48.060Z,1.85
2022-11-14T14:26:30.591Z,1.70
2022-11-14T14:29:19.233Z,2.00
2022-11-14T14:31:46.013Z,2.35
2022-11-14T14:34:29.207Z,2.17
2022-11-14T14:36:56.804Z,2.28
2022-11-14T14:39:27.743Z,2.05
2022-11-14T14:41:55.383Z,2.33
2022-11-14T14:44:32.248Z,2.42
2022-11-14T14:46:59.113Z,2.15
2022-11-14T14:49:32.293Z,2.90
2022-11-14T14:51:59.223Z,2.50
2022-11-14T14:54:27.390Z,2.08
2022-11-14T14:57:02.841Z,3.00
2022-11-14T14:59:30.387Z,2.50
2022-11-14T15:01:57.719Z,2.33
2022-11-14T15:04:27.862Z,2.05
2022-11-14T15:06:57.293Z,2.67
2022-11-14T15:09:29.840Z,2.35
2022-11-14T15:11:58.644Z,2.13
2022-11-14T15:14:27.628Z,2.42
2022-11-14T15:16:55.765Z,2.42
2022-11-14T15:19:28.941Z,2.28
2022-11-14T15:22:03.628Z,2.80
2022-11-14T15:24:30.548Z,2.60
2022-11-14T15:26:58.317Z,2.40
2022-11-14T15:29:28.903Z,2.55
2022-11-14T15:31:59.462Z,2.40
2022-11-14T15:34:30.138Z,3.13
2022-11-14T15:37:16.336Z,2.33
2022-11-14T15:39:43.725Z,2.50
2022-11-14T15:42:28.999Z,2.15
2022-11-14T15:44:56.147Z,2.75
2022-11-14T15:47:29.788Z,2.50
2022-11-14T15:50:02.495Z,2.95
2022-11-14T15:52:35.290Z,2.75
2022-11-14T15:55:02.203Z,2.83
2022-11-14T15:57:30.668Z,3.65
2022-11-14T15:59:57.443Z,3.55
2022-11-14T16:02:28.337Z,3.33
2022-11-14T16:04:55.468Z,3.60
2022-11-14T16:07:22.396Z,4.20
2022-11-14T16:09:49.277Z,3.70
2022-11-14T16:12:16.084Z,4.20
2022-11-14T16:14:42.894Z,4.30
2022-11-14T16:17:13.735Z,3.88
2022-11-14T16:19:40.673Z,4.20
2022-11-14T16:22:13.326Z,3.38
2022-11-14T16:24:40.144Z,2.95
2022-11-14T16:27:07.033Z,3.33
2022-11-14T16:29:33.785Z,3.38
2022-11-14T16:32:00.855Z,2.92
2022-11-14T16:34:27.828Z,3.10
2022-11-14T16:36:58.852Z,3.25
2022-11-14T16:39:25.728Z,3.47
2022-11-14T16:41:52.667Z,3.25
2022-11-14T16:44:19.596Z,3.50
2022-11-14T16:46:46.603Z,3.67
2022-11-14T16:49:16.952Z,3.58
2022-11-14T16:51:48.792Z,3.25
2022-11-14T16:54:16.921Z,3.10
2022-11-14T16:56:43.762Z,3.28
2022-11-14T16:59:10.556Z,3.95
2022-11-14T17:01:37.878Z,3.22
2022-11-14T17:04:04.944Z,3.67
2022-11-14T17:06:31.754Z,3.63
2022-11-14T17:08:59.143Z,3.83
2022-11-14T17:11:26.185Z,3.38
2022-11-14T17:13:54.038Z,3.80
2022-11-14T17:16:20.848Z,3.35
2022-11-14T17:18:52.602Z,3.45
2022-11-14T17:21:19.390Z,4.10
2022-11-14T17:24:00.533Z,3.50
2022-11-14T17:26:27.622Z,3.60
2022-11-14T17:28:54.445Z,3.33
2022-11-14T17:31:21.334Z,3.65
2022-11-14T17:33:52.344Z,4.20
2022-11-14T17:36:19.254Z,3.80
2022-11-14T17:38:46.058Z,3.65
2022-11-14T17:41:12.922Z,3.35
2022-11-14T17:43:40.597Z,3.53
2022-11-14T17:46:14.232Z,3.80
2022-11-14T17:48:43.339Z,3.63
2022-11-14T17:51:12.272Z,3.42
2022-11-14T17:53:39.451Z,3.45
2022-11-14T17:56:07.713Z,3.10
2022-11-14T17:58:35.030Z,3.60
2022-11-14T18:01:01.979Z,3.40
2022-11-14T18:03:28.823Z,3.47
2022-11-14T18:06:08.829Z,3.92
2022-11-14T18:08:35.807Z,3.75
2022-11-14T18:11:03.542Z,3.67
2022-11-14T18:13:30.436Z,3.67
2022-11-14T18:16:05.023Z,3.97
2022-11-14T18:18:33.249Z,4.28
2022-11-14T18:21:24.295Z,4.10
2022-11-14T18:23:52.112Z,3.92
2022-11-14T18:26:19.384Z,3.95
2022-11-14T18:28:47.528Z,3.28
2022-11-14T18:31:15.065Z,3.03
2022-11-14T18:33:41.920Z,3.30
2022-11-14T18:36:11.405Z,3.00
2022-11-14T18:38:38.207Z,3.17
2022-11-14T18:41:08.273Z,2.92
2022-11-14T18:43:35.091Z,2.67
2022-11-14T18:46:09.799Z,2.38
2022-11-14T18:48:37.068Z,2.47
2022-11-14T18:51:04.986Z,2.42
2022-11-14T18:53:33.536Z,2.10
2022-11-14T18:58:39.797Z,1.90
2022-11-14T19:01:13.198Z,2.30
2022-11-14T19:03:40.662Z,1.70
2022-11-14T19:06:09.052Z,1.60
2022-11-14T19:08:36.258Z,1.60
2022-11-14T19:11:35.267Z,1.60
2022-11-14T19:14:03.577Z,1.65
2022-11-14T19:16:41.331Z,1.50
2022-11-14T19:19:08.736Z,1.65
2022-11-14T19:21:36.106Z,1.52
2022-11-14T19:24:03.232Z,1.60
2022-11-14T19:26:30.597Z,1.80
2022-11-14T19:28:57.773Z,2.20
2022-11-14T19:31:25.164Z,2.47
2022-11-14T19:33:51.913Z,2.30
2022-11-14T19:36:38.489Z,1.88
2022-11-14T19:39:09.654Z,1.70
2022-11-14T19:41:36.454Z,2.03
2022-11-14T19:44:03.618Z,2.17
2022-11-14T19:46:30.531Z,2.15
2022-11-14T19:48:58.397Z,2.20
2022-11-14T19:51:25.174Z,2.10
2022-11-14T19:53:53.564Z,1.90
2022-11-14T19:56:20.986Z,1.95
2022-11-14T19:58:48.692Z,2.15
2022-11-14T20:01:23.812Z,1.70
2022-11-14T20:03:57.424Z,2.30
2022-11-14T20:06:28.134Z,2.03
2022-11-14T20:08:55.415Z,1.80
2022-11-14T20:11:22.588Z,1.80
2022-11-14T20:13:49.619Z,1.83
2022-11-14T20:16:18.072Z,1.50
2022-11-14T20:18:46.367Z,1.80
2022-11-14T20:21:13.846Z,2.17
2022-11-14T20:23:40.840Z,1.75
2022-11-14T20:26:11.262Z,1.70
2022-11-14T20:28:39.197Z,1.60
2022-11-14T20:31:27.410Z,1.48
2022-11-14T20:33:54.613Z,1.52
2022-11-14T20:36:25.313Z,1.30
2022-11-14T20:38:52.591Z,0.98
2022-11-14T20:41:20.428Z,1.40
2022-11-14T20:43:47.465Z,1.00
2022-11-14T20:46:19.187Z,1.10
2022-11-14T20:48:46.355Z,0.90
2022-11-14T20:51:14.611Z,1.20
2022-11-14T20:53:41.788Z,1.15
2022-11-14T20:56:08.761Z,0.80
2022-11-14T20:58:36.324Z,1.00
2022-11-14T21:01:03.407Z,1.10
2022-11-14T21:03:30.629Z,1.17
2022-11-14T21:05:58.330Z,1.05
2022-11-14T21:08:26.014Z,1.23
2022-11-14T21:10:58.675Z,1.30
2022-11-14T21:13:44.392Z,1.17
2022-11-14T21:16:16.014Z,1.45
2022-11-14T21:18:47.914Z,1.42
2022-11-14T21:21:16.793Z,0.90
2022-11-14T21:23:45.657Z,1.10
2022-11-14T21:26:23.459Z,0.77
2022-11-14T21:28:52.659Z,0.80
2022-11-14T21:31:42.039Z,0.68
2022-11-14T21:34:15.633Z,0.60
2022-11-14T21:36:45.842Z,0.65
2022-11-14T21:39:15.195Z,0.60
2022-11-14T21:41:42.733Z,0.70
2022-11-14T21:44:13.693Z,0.60
2022-11-14T21:46:41.121Z,1.02
2022-11-14T21:49:07.978Z,0.80
2022-11-14T21:51:34.986Z,0.60
2022-11-14T21:54:02.916Z,0.80
2022-11-14T21:56:31.109Z,0.50
2022-11-14T21:59:13.716Z,0.52
2022-11-14T22:02:03.537Z,0.55
2022-11-14T22:04:31.444Z,0.70
2022-11-14T22:06:58.917Z,0.52
2022-11-14T22:09:28.798Z,0.60
2022-11-14T22:11:56.212Z,0.50
2022-11-14T22:14:23.385Z,0.55
2022-11-14T22:16:50.195Z,0.77
2022-11-14T22:19:17.145Z,0.40
2022-11-14T22:21:44.075Z,0.55
2022-11-14T22:24:11.131Z,0.60
2022-11-14T22:26:40.332Z,0.63
2022-11-14T22:29:07.820Z,0.50
2022-11-14T22:31:34.743Z,0.60
2022-11-14T22:34:01.782Z,0.47
2022-11-14T22:36:28.756Z,0.80
2022-11-14T22:38:56.206Z,0.50
2022-11-14T22:41:31.916Z,0.88
2022-11-14T22:43:59.983Z,0.47
2022-11-14T22:46:27.533Z,0.50
2022-11-14T22:48:55.031Z,0.63
2022-11-14T22:51:23.554Z,0.32
2022-11-14T22:53:51.546Z,0.40
2022-11-14T22:56:19.538Z,0.30
2022-11-14T22:58:46.695Z,0.30
2022-11-14T23:01:17.413Z,0.40
2022-11-14T23:03:44.810Z,0.40
2022-11-14T23:06:13.451Z,0.30
2022-11-14T23:08:40.792Z,0.30
2022-11-14T23:11:09.952Z,0.40
2022-11-14T23:13:41.125Z,0.32
2022-11-14T23:16:08.893Z,0.50
2022-11-14T23:18:35.984Z,0.30
2022-11-14T23:21:09.821Z,0.30
2022-11-14T23:23:36.935Z,0.30
2022-11-14T23:26:08.192Z,0.40
2022-11-14T23:28:35.125Z,0.38
2022-11-14T23:31:02.177Z,0.40
2022-11-14T23:33:29.966Z,0.43
2022-11-14T23:35:57.054Z,0.45
2022-11-14T23:38:24.326Z,0.40
2022-11-14T23:40:59.395Z,0.30
2022-11-14T23:43:26.499Z,0.30
2022-11-14T23:45:53.511Z,0.47
2022-11-14T23:48:20.834Z,0.40
2022-11-14T23:50:52.199Z,0.32
2022-11-14T23:53:20.399Z,0.40
2022-11-14T23:55:54.489Z,0.38
2022-11-14T23:58:22.010Z,0.30
